Time;durP1;ratioP1;P1;durP2;ratioP2;P2;SDS_P1;SDS_P2;PMS_P1;PMS_P2;Temp;Humidity;BMP_temperature;BMP_pressure;BME280_temperature;BME280_humidity;BME280_pressure;Samples;Min_cycle;Max_cycle;Signal;HPM_P1;HPM_P2
2022/12/13 00:00:58;;;;;;;46.72;22.83;;;-4.00;99.90;;;;;;5049265;28;20044;-63
2022/12/13 00:03:25;;;;;;;45.85;22.65;;;-4.00;99.90;;;;;;5034201;28;20041;-62
2022/12/13 00:05:53;;;;;;;48.47;23.00;;;-4.00;99.90;;;;;;5034340;28;20048;-62
2022/12/13 00:08:20;;;;;;;41.78;22.05;;;-4.00;99.90;;;;;;5050623;28;20071;-63
2022/12/13 00:10:47;;;;;;;45.83;24.05;;;-4.10;99.90;;;;;;5034452;28;20049;-62
2022/12/13 00:13:14;;;;;;;47.80;22.48;;;-4.10;99.90;;;;;;5013874;28;20057;-63
2022/12/13 00:15:41;;;;;;;43.78;23.10;;;-4.10;99.90;;;;;;5031040;28;20493;-61
2022/12/13 00:18:08;;;;;;;39.05;21.08;;;-4.10;99.90;;;;;;5031282;28;20053;-63
2022/12/13 00:20:35;;;;;;;47.22;22.58;;;-4.10;99.90;;;;;;5031811;28;20330;-62
2022/12/13 00:23:03;;;;;;;47.85;23.70;;;-4.20;99.90;;;;;;5030939;28;20053;-62
2022/12/13 00:25:30;;;;;;;43.22;23.60;;;-4.20;99.90;;;;;;5015786;28;20076;-62
2022/12/13 00:27:57;;;;;;;46.55;22.65;;;-4.20;99.90;;;;;;5017683;28;20107;-62
2022/12/13 00:30:24;;;;;;;44.03;22.27;;;-4.20;99.90;;;;;;5034872;28;20416;-62
2022/12/13 00:32:51;;;;;;;47.10;22.88;;;-4.20;99.90;;;;;;5017534;28;20065;-62
2022/12/13 00:35:18;;;;;;;39.83;21.75;;;-4.20;99.90;;;;;;5017622;28;20378;-62
2022/12/13 00:37:45;;;;;;;47.63;21.20;;;-4.20;99.90;;;;;;5034496;28;20053;-62
2022/12/13 00:40:13;;;;;;;56.47;23.75;;;-4.30;99.90;;;;;;5017499;28;20488;-63
2022/12/13 00:42:40;;;;;;;46.17;21.70;;;-4.30;99.90;;;;;;5034944;28;20520;-63
2022/12/13 00:45:08;;;;;;;42.60;23.38;;;-4.30;99.90;;;;;;5034443;28;20052;-63
2022/12/13 00:47:35;;;;;;;48.25;23.95;;;-4.30;99.90;;;;;;5034957;28;20049;-63
2022/12/13 00:50:02;;;;;;;42.65;22.48;;;-4.30;99.90;;;;;;5034371;28;20057;-63
2022/12/13 00:52:29;;;;;;;45.38;23.98;;;-4.40;99.90;;;;;;5017045;28;20057;-63
2022/12/13 00:54:56;;;;;;;41.65;21.27;;;-4.40;99.90;;;;;;5034744;28;20049;-62
2022/12/13 00:57:24;;;;;;;46.08;22.35;;;-4.40;99.90;;;;;;5016559;28;20080;-62
2022/12/13 00:59:51;;;;;;;45.53;21.23;;;-4.40;99.90;;;;;;5035001;28;20052;-63
2022/12/13 01:02:18;;;;;;;46.92;23.00;;;-4.40;99.90;;;;;;5032594;28;20045;-63
2022/12/13 01:04:45;;;;;;;36.63;20.10;;;-4.40;99.90;;;;;;5033429;28;20508;-62
2022/12/13 01:07:12;;;;;;;37.20;21.30;;;-4.40;99.90;;;;;;5017194;28;20045;-62
2022/12/13 01:09:41;;;;;;;39.40;21.25;;;-4.40;99.90;;;;;;5016926;28;20098;-62
2022/12/13 01:12:09;;;;;;;42.20;21.05;;;-4.50;99.90;;;;;;5026833;28;20055;-62
2022/12/13 01:14:38;;;;;;;46.05;21.80;;;-4.50;99.90;;;;;;5034330;28;20096;-63
2022/12/13 01:17:06;;;;;;;38.33;21.42;;;-4.50;99.90;;;;;;5054435;28;20053;-62
2022/12/13 01:19:33;;;;;;;41.10;21.23;;;-4.50;99.90;;;;;;5035863;28;20057;-63
2022/12/13 01:22:02;;;;;;;43.67;18.92;;;-4.50;99.90;;;;;;5036628;28;20091;-63
2022/12/13 01:24:30;;;;;;;41.33;20.35;;;-4.60;99.90;;;;;;5054087;28;20068;-63
2022/12/13 01:26:58;;;;;;;46.78;21.80;;;-4.60;99.90;;;;;;5053743;28;20045;-62
2022/12/13 01:29:26;;;;;;;41.72;21.27;;;-4.60;99.90;;;;;;5051280;28;20053;-64
2022/12/13 01:31:54;;;;;;;45.20;21.40;;;-4.60;99.90;;;;;;5036159;28;20052;-62
2022/12/13 01:34:23;;;;;;;37.67;20.25;;;-4.60;99.90;;;;;;5051429;28;20048;-62
2022/12/13 01:36:50;;;;;;;42.40;22.15;;;-4.70;99.90;;;;;;5036184;28;20052;-63
2022/12/13 01:39:19;;;;;;;39.40;21.00;;;-4.70;99.90;;;;;;5035686;28;20063;-63
2022/12/13 01:41:48;;;;;;;40.78;20.58;;;-4.70;99.90;;;;;;5051838;28;20053;-63
2022/12/13 01:44:59;;;;;;;35.80;19.98;;;-4.70;99.90;;;;;;5035492;28;20056;-62
2022/12/13 01:47:32;;;;;;;36.53;21.00;;;-4.70;99.90;;;;;;5053300;28;20055;-62
2022/12/13 01:50:02;;;;;;;37.13;18.77;;;-4.70;99.90;;;;;;5053907;28;20409;-62
2022/12/13 01:52:32;;;;;;;38.13;19.77;;;-4.70;99.90;;;;;;5053556;28;20053;-63
2022/12/13 01:55:01;;;;;;;41.92;20.30;;;-4.70;99.90;;;;;;5050852;28;20044;-62
2022/12/13 01:57:28;;;;;;;37.85;19.95;;;-4.70;99.90;;;;;;5035691;28;20053;-63
2022/12/13 01:59:55;;;;;;;35.22;20.17;;;-4.70;99.90;;;;;;5036035;28;20492;-63
2022/12/13 02:02:22;;;;;;;38.35;19.90;;;-4.80;99.90;;;;;;5033402;28;20048;-64
2022/12/13 02:04:56;;;;;;;38.35;18.73;;;-4.80;99.90;;;;;;5035649;28;20060;-62
2022/12/13 02:07:29;;;;;;;37.38;20.17;;;-4.80;99.90;;;;;;5034299;28;20489;-62
2022/12/13 02:09:59;;;;;;;39.80;20.77;;;-4.80;99.90;;;;;;5053644;28;20049;-63
2022/12/13 02:12:27;;;;;;;36.40;18.77;;;-4.80;99.90;;;;;;5033709;28;20056;-62
2022/12/13 02:14:55;;;;;;;41.10;20.23;;;-4.80;99.90;;;;;;5052265;28;20092;-62
2022/12/13 02:17:29;;;;;;;37.70;20.08;;;-4.80;99.90;;;;;;5035526;28;20135;-62
2022/12/13 02:20:29;;;;;;;44.28;20.73;;;-4.90;99.90;;;;;;5051971;28;20041;-63
2022/12/13 02:23:20;;;;;;;34.67;18.75;;;-4.90;99.90;;;;;;5052715;28;20048;-62
2022/12/13 02:26:15;;;;;;;42.38;19.95;;;-4.90;99.90;;;;;;5034714;28;20052;-62
2022/12/13 02:29:01;;;;;;;32.72;19.52;;;-4.90;99.90;;;;;;5006703;28;20471;-63
2022/12/13 02:31:32;;;;;;;37.45;18.73;;;-4.90;99.90;;;;;;5052493;28;20048;-63
2022/12/13 02:34:05;;;;;;;39.83;21.48;;;-4.90;99.90;;;;;;5034220;28;20106;-63
2022/12/13 02:36:37;;;;;;;40.25;19.60;;;-4.90;99.90;;;;;;5051812;28;20045;-62
2022/12/13 02:39:10;;;;;;;41.80;19.98;;;-4.90;99.90;;;;;;5033812;28;20106;-62
2022/12/13 02:41:41;;;;;;;46.72;21.17;;;-4.90;99.90;;;;;;5051578;28;20156;-63
2022/12/13 02:44:10;;;;;;;;;;;-4.90;99.90;;;;;;5050465;28;20055;-63
2022/12/13 02:46:43;;;;;;;43.97;20.08;;;-4.80;99.90;;;;;;5034585;28;19924;-63
2022/12/13 02:49:10;;;;;;;53.78;21.60;;;-4.80;99.90;;;;;;5034612;28;20522;-62
2022/12/13 02:51:39;;;;;;;42.25;21.38;;;-4.90;99.90;;;;;;5052326;28;20055;-63
2022/12/13 02:54:06;;;;;;;42.70;20.65;;;-4.80;99.90;;;;;;5052255;28;20083;-63
2022/12/13 02:56:33;;;;;;;38.72;20.77;;;-4.80;99.90;;;;;;5034191;28;20051;-62
2022/12/13 02:59:03;;;;;;;39.58;20.67;;;-4.80;99.90;;;;;;5052092;28;20045;-62
2022/12/13 03:01:45;;;;;;;42.43;22.03;;;-4.80;99.90;;;;;;5052325;28;20052;-62
2022/12/13 03:04:23;;;;;;;39.58;21.05;;;-4.80;99.90;;;;;;5032506;28;20674;-64
2022/12/13 03:06:59;;;;;;;38.28;20.98;;;-4.80;99.90;;;;;;5033005;28;20045;-63
2022/12/13 03:09:39;;;;;;;38.63;20.35;;;-4.90;99.90;;;;;;5033296;28;20123;-63
2022/12/13 03:15:08;;;;;;;38.97;20.30;;;-4.80;99.90;;;;;;5051881;28;20040;-64
2022/12/13 03:17:42;;;;;;;35.78;20.00;;;-4.90;99.90;;;;;;5052398;28;20048;-63
2022/12/13 03:20:10;;;;;;;40.45;20.77;;;-4.90;99.90;;;;;;5034577;28;20048;-63
2022/12/13 03:22:37;;;;;;;39.92;21.85;;;-4.90;99.90;;;;;;5034721;28;20075;-62
2022/12/13 03:25:05;;;;;;;35.67;18.33;;;-4.90;99.90;;;;;;5051203;28;20049;-63
2022/12/13 03:27:32;;;;;;;36.45;19.45;;;-4.90;99.90;;;;;;5052120;28;20413;-62
2022/12/13 03:29:59;;;;;;;37.60;19.17;;;-5.00;99.90;;;;;;5052004;28;20037;-63
2022/12/13 03:32:26;;;;;;;36.08;19.92;;;-5.00;99.90;;;;;;5033839;28;20056;-63
2022/12/13 03:34:55;;;;;;;34.83;19.33;;;-4.90;99.90;;;;;;5051682;28;20045;-62
2022/12/13 03:37:21;;;;;;;36.30;19.42;;;-6.10;99.90;;;;;;5052414;28;20049;-62
2022/12/13 03:39:48;;;;;;;38.05;19.83;;;-5.00;99.90;;;;;;5051217;28;20053;-62
2022/12/13 03:42:16;;;;;;;38.88;20.38;;;-5.00;99.90;;;;;;5052217;28;20049;-64
2022/12/13 03:44:43;;;;;;;37.88;20.50;;;-5.00;99.90;;;;;;5051789;28;20048;-63
2022/12/13 03:47:10;;;;;;;34.22;19.90;;;-5.00;99.90;;;;;;5051362;28;20044;-63
2022/12/13 03:49:37;;;;;;;40.67;21.02;;;-5.00;99.90;;;;;;5034050;28;20052;-63
2022/12/13 03:52:05;;;;;;;40.88;19.48;;;-5.00;99.90;;;;;;5034302;28;20060;-63
2022/12/13 03:54:32;;;;;;;42.35;19.27;;;-5.10;99.90;;;;;;5049223;28;20378;-63
2022/12/13 03:56:59;;;;;;;39.63;19.92;;;-5.00;99.90;;;;;;5034221;28;20041;-61
2022/12/13 03:59:27;;;;;;;33.55;18.70;;;-5.10;99.90;;;;;;5052196;28;20083;-63
2022/12/13 04:01:54;;;;;;;40.08;19.35;;;-5.10;99.90;;;;;;5055326;28;20052;-64
2022/12/13 04:04:21;;;;;;;37.42;18.15;;;-5.00;99.90;;;;;;5037548;28;20053;-62
2022/12/13 04:06:47;;;;;;;33.70;19.08;;;-5.00;99.90;;;;;;5055967;28;20045;-63
2022/12/13 04:09:16;;;;;;;37.00;18.52;;;-5.00;99.90;;;;;;5055332;28;20055;-63
2022/12/13 04:14:28;;;;;;;32.72;17.65;;;-5.10;99.90;;;;;;5034870;28;20479;-63
2022/12/13 04:16:55;;;;;;;37.38;19.80;;;-5.10;99.90;;;;;;5035806;28;20045;-62
2022/12/13 04:19:21;;;;;;;37.85;18.75;;;-5.10;99.90;;;;;;5016477;28;20045;-62
2022/12/13 04:21:48;;;;;;;37.97;20.88;;;-5.10;99.90;;;;;;5017567;28;20056;-62
2022/12/13 04:24:17;;;;;;;36.70;19.83;;;-5.10;99.90;;;;;;5035408;28;20045;-63
2022/12/13 04:26:44;;;;;;;32.70;18.85;;;-5.10;99.90;;;;;;5017652;28;20049;-64
2022/12/13 04:29:11;;;;;;;34.20;18.35;;;-5.20;99.90;;;;;;5017048;28;20049;-63
2022/12/13 04:31:38;;;;;;;34.63;19.38;;;-5.20;99.90;;;;;;5017780;28;20076;-62
2022/12/13 04:34:05;;;;;;;32.13;19.17;;;-5.20;99.90;;;;;;5006966;28;20054;-71
2022/12/13 04:36:32;;;;;;;33.83;19.58;;;-5.10;99.90;;;;;;5004606;28;20552;-64
2022/12/13 04:38:59;;;;;;;38.78;20.23;;;-5.10;99.90;;;;;;5013683;28;20111;-64
2022/12/13 04:41:28;;;;;;;33.55;17.88;;;-5.10;99.90;;;;;;5030283;28;20041;-67
2022/12/13 04:43:55;;;;;;;33.97;19.00;;;-5.10;99.90;;;;;;5029138;28;20053;-64
2022/12/13 04:46:22;;;;;;;33.33;19.10;;;-5.10;99.90;;;;;;5029160;28;20445;-64
2022/12/13 04:48:49;;;;;;;33.17;17.70;;;-5.10;99.90;;;;;;5031047;28;20064;-64
2022/12/13 04:51:16;;;;;;;35.28;18.23;;;-5.10;99.90;;;;;;5010998;28;20045;-64
2022/12/13 04:53:44;;;;;;;36.47;19.73;;;-5.10;99.90;;;;;;5011149;28;20064;-63
2022/12/13 04:56:11;;;;;;;31.98;17.30;;;-5.10;99.90;;;;;;5028726;28;20041;-64
2022/12/13 04:58:39;;;;;;;31.48;17.63;;;-5.20;99.90;;;;;;5014194;28;20129;-64
2022/12/13 05:01:07;;;;;;;31.80;17.70;;;-5.20;99.90;;;;;;5030289;28;20111;-64
2022/12/13 05:03:34;;;;;;;33.03;19.00;;;-5.20;99.90;;;;;;5013209;28;20087;-64
2022/12/13 05:06:05;;;;;;;32.72;18.23;;;-5.20;99.90;;;;;;5030755;28;20508;-66
2022/12/13 05:08:32;;;;;;;32.45;17.55;;;-5.20;99.90;;;;;;5011175;28;20493;-64
2022/12/13 05:10:59;;;;;;;32.67;17.98;;;-5.20;99.90;;;;;;5027084;28;20045;-64
2022/12/13 05:13:26;;;;;;;39.10;19.58;;;-5.30;99.90;;;;;;5029698;28;20045;-65
2022/12/13 05:15:58;;;;;;;32.40;17.98;;;-5.20;99.90;;;;;;5029683;28;20124;-65
2022/12/13 05:18:26;;;;;;;29.27;16.95;;;-5.20;99.90;;;;;;5033448;28;20044;-65
2022/12/13 05:20:53;;;;;;;27.95;17.00;;;-5.20;99.90;;;;;;5049741;28;20049;-64
2022/12/13 05:23:21;;;;;;;36.78;17.88;;;-5.20;99.90;;;;;;5028828;28;20053;-64
2022/12/13 05:25:48;;;;;;;29.70;17.63;;;-5.20;99.90;;;;;;5028510;28;20061;-64
2022/12/13 05:28:15;;;;;;;30.20;17.60;;;-5.20;99.90;;;;;;5046153;28;20041;-65
2022/12/13 05:30:43;;;;;;;37.42;19.02;;;-5.30;99.90;;;;;;5048963;28;20052;-65
2022/12/13 05:33:12;;;;;;;32.72;17.60;;;-5.30;99.90;;;;;;5050604;28;20057;-64
2022/12/13 05:35:38;;;;;;;35.08;19.23;;;-5.30;99.90;;;;;;5049315;28;20425;-65
2022/12/13 05:38:05;;;;;;;34.65;19.80;;;-5.30;99.90;;;;;;5048780;28;20049;-65
2022/12/13 05:40:32;;;;;;;34.00;17.90;;;-5.30;99.90;;;;;;5046754;28;20041;-64
2022/12/13 05:43:00;;;;;;;33.60;18.20;;;-5.20;99.90;;;;;;5046805;28;20049;-64
2022/12/13 05:45:27;;;;;;;29.15;17.55;;;-5.20;99.90;;;;;;5049474;28;20947;-64
2022/12/13 05:47:54;;;;;;;31.95;18.88;;;-5.30;99.90;;;;;;5049594;28;20041;-64
2022/12/13 05:50:22;;;;;;;35.83;19.58;;;-5.30;99.90;;;;;;5046968;28;20052;-62
2022/12/13 05:52:49;;;;;;;29.38;17.45;;;-5.30;99.90;;;;;;5046464;28;20137;-62
2022/12/13 05:55:16;;;;;;;31.85;19.88;;;-5.30;99.90;;;;;;5027017;28;20481;-64
2022/12/13 05:57:43;;;;;;;30.55;18.27;;;-5.30;99.90;;;;;;5028208;28;20064;-63
2022/12/13 06:00:12;;;;;;;31.75;17.67;;;-5.30;99.90;;;;;;5048611;28;20053;-63
2022/12/13 06:02:39;;;;;;;28.98;17.15;;;-5.30;99.90;;;;;;5029651;28;20068;-65
2022/12/13 06:05:08;;;;;;;31.70;18.10;;;-5.30;99.90;;;;;;5045969;28;20040;-64
2022/12/13 06:07:37;;;;;;;30.50;17.92;;;-5.30;99.90;;;;;;5047739;28;20045;-64
2022/12/13 06:10:05;;;;;;;35.25;17.73;;;-5.30;99.90;;;;;;5046792;28;20045;-64
2022/12/13 06:12:34;;;;;;;30.48;17.83;;;-5.30;99.90;;;;;;5031249;28;20049;-64
2022/12/13 06:15:01;;;;;;;32.72;19.20;;;-5.30;99.90;;;;;;5047761;28;20053;-64
2022/12/13 06:17:30;;;;;;;32.75;18.17;;;-5.30;99.90;;;;;;5031057;28;20045;-64
2022/12/13 06:19:57;;;;;;;33.80;17.60;;;-5.30;99.90;;;;;;5048127;28;20049;-64
2022/12/13 06:22:24;;;;;;;30.05;16.92;;;-5.30;99.90;;;;;;5028144;28;20054;-65
2022/12/13 06:24:52;;;;;;;30.42;17.50;;;-5.30;99.90;;;;;;5029331;28;20075;-64
2022/12/13 06:27:20;;;;;;;30.35;18.30;;;-5.30;99.90;;;;;;5030062;28;20479;-63
2022/12/13 06:29:47;;;;;;;28.50;16.73;;;-5.30;99.90;;;;;;5029127;28;20049;-63
2022/12/13 06:32:13;;;;;;;34.58;18.45;;;-5.30;99.90;;;;;;5048239;28;20072;-62
2022/12/13 06:34:40;;;;;;;37.75;18.95;;;-5.40;99.90;;;;;;5029404;28;20488;-64
2022/12/13 06:37:12;;;;;;;31.45;18.00;;;-5.30;99.90;;;;;;5046651;28;20041;-64
2022/12/13 06:39:39;;;;;;;36.13;17.88;;;-5.30;99.90;;;;;;5029488;28;20057;-63
2022/12/13 06:42:13;;;;;;;35.08;18.02;;;-5.30;99.90;;;;;;5030804;28;20049;-63
2022/12/13 06:44:41;;;;;;;27.75;17.23;;;-5.30;99.90;;;;;;5030740;28;20056;-64
2022/12/13 06:47:08;;;;;;;27.13;18.25;;;-5.30;99.90;;;;;;5033342;28;20045;-65
2022/12/13 06:49:35;;;;;;;29.58;16.75;;;-5.30;99.90;;;;;;5031867;28;20053;-63
2022/12/13 06:52:02;;;;;;;34.15;18.00;;;-5.30;99.90;;;;;;5030648;28;20492;-63
2022/12/13 06:54:29;;;;;;;28.25;16.52;;;-5.30;99.90;;;;;;5045911;28;20080;-63
2022/12/13 06:56:56;;;;;;;32.28;18.10;;;-5.30;99.90;;;;;;5046219;28;20049;-64
2022/12/13 06:59:24;;;;;;;30.83;16.65;;;-5.30;99.90;;;;;;5029961;28;20094;-64
2022/12/13 07:01:51;;;;;;;28.98;17.45;;;-5.30;99.90;;;;;;5029394;28;20076;-63
2022/12/13 07:04:18;;;;;;;32.30;18.08;;;-5.30;99.90;;;;;;5029021;28;20068;-64
2022/12/13 07:06:45;;;;;;;32.80;17.95;;;-5.30;99.90;;;;;;5047687;28;20045;-64
2022/12/13 07:09:12;;;;;;;30.25;17.75;;;-5.30;99.90;;;;;;5032535;28;20049;-63
2022/12/13 07:11:39;;;;;;;28.13;17.73;;;-5.30;99.90;;;;;;5032001;28;20496;-63
2022/12/13 07:14:06;;;;;;;28.75;17.92;;;-5.30;99.90;;;;;;5029822;28;20732;-63
2022/12/13 07:16:34;;;;;;;29.58;17.00;;;-5.30;99.90;;;;;;5052111;28;20507;-63
2022/12/13 07:19:03;;;;;;;30.88;16.92;;;-5.30;99.90;;;;;;5050864;28;20048;-64
2022/12/13 07:21:31;;;;;;;29.48;17.67;;;-5.30;99.90;;;;;;5034274;28;20147;-64
2022/12/13 07:24:00;;;;;;;34.10;18.27;;;-5.30;99.90;;;;;;5031876;28;20041;-64
2022/12/13 07:26:27;;;;;;;28.13;17.23;;;-5.30;99.90;;;;;;5033672;28;20052;-64
2022/12/13 07:28:53;;;;;;;32.95;18.08;;;-5.30;99.90;;;;;;5052065;28;20408;-64
2022/12/13 07:31:21;;;;;;;29.02;15.98;;;-5.30;99.90;;;;;;5033651;28;20408;-64
2022/12/13 07:33:50;;;;;;;30.88;18.40;;;-5.20;99.90;;;;;;5034092;28;20485;-65
2022/12/13 07:36:19;;;;;;;28.65;18.52;;;-5.30;99.90;;;;;;5034335;28;20053;-64
2022/12/13 07:38:50;;;;;;;36.03;18.63;;;-5.20;99.90;;;;;;5033596;28;20056;-64
2022/12/13 07:41:18;;;;;;;36.70;19.52;;;-5.20;99.90;;;;;;5051548;28;20044;-64
2022/12/13 07:43:44;;;;;;;36.53;19.20;;;-5.20;99.90;;;;;;5051589;28;20097;-64
2022/12/13 07:46:12;;;;;;;34.75;19.50;;;-5.20;99.90;;;;;;5050907;28;20127;-64
2022/12/13 07:48:39;;;;;;;30.25;18.15;;;-5.20;99.90;;;;;;5031977;28;20064;-64
2022/12/13 07:51:10;;;;;;;30.92;17.02;;;-5.20;99.90;;;;;;5049407;28;20120;-64
2022/12/13 07:53:38;;;;;;;31.42;18.15;;;-5.10;99.90;;;;;;5051385;28;20079;-64
2022/12/13 07:56:07;;;;;;;28.48;16.48;;;-5.10;99.90;;;;;;5051906;28;20049;-64
2022/12/13 07:58:34;;;;;;;30.13;17.42;;;-5.10;99.90;;;;;;5031328;28;20048;-65
2022/12/13 08:01:02;;;;;;;31.25;17.58;;;-5.10;99.90;;;;;;5033493;28;20049;-64
2022/12/13 08:03:29;;;;;;;31.70;18.33;;;-5.00;99.90;;;;;;5049764;28;20076;-64
2022/12/13 08:09:38;;;;;;;33.63;18.23;;;-4.90;99.90;;;;;;5051270;28;20099;-63
2022/12/13 08:12:05;;;;;;;35.88;19.25;;;-4.70;99.90;;;;;;5023347;28;20104;-63
2022/12/13 08:14:32;;;;;;;34.25;17.83;;;-4.50;99.90;;;;;;5030986;28;20119;-64
2022/12/13 08:16:59;;;;;;;31.20;17.48;;;-4.00;99.90;;;;;;5013894;28;20072;-64
2022/12/13 08:19:26;;;;;;;32.72;18.48;;;-3.40;99.90;;;;;;5029597;28;20041;-64
2022/12/13 08:21:55;;;;;;;31.52;16.77;;;-2.70;99.90;;;;;;5012924;28;20143;-65
2022/12/13 08:24:22;;;;;;;28.63;17.30;;;-2.00;99.90;;;;;;5013817;28;20046;-64
2022/12/13 08:26:50;;;;;;;31.52;16.95;;;-1.60;99.90;;;;;;5014035;28;20048;-68
2022/12/13 08:29:17;;;;;;;30.35;17.83;;;-1.10;99.90;;;;;;5031025;28;20049;-64
2022/12/13 08:31:45;;;;;;;30.80;18.80;;;-0.60;99.90;;;;;;5013069;28;20053;-64
2022/12/13 08:34:12;;;;;;;25.55;15.80;;;0.00;99.90;;;;;;5030787;28;20444;-65
2022/12/13 08:36:39;;;;;;;38.13;18.77;;;0.60;99.90;;;;;;5031570;28;20156;-64
2022/12/13 08:39:05;;;;;;;28.15;15.32;;;0.90;99.90;;;;;;5031188;28;20057;-64
2022/12/13 08:41:32;;;;;;;27.52;16.83;;;1.00;99.90;;;;;;5031084;28;20050;-64
2022/12/13 08:44:01;;;;;;;28.73;17.42;;;1.30;99.90;;;;;;5031074;28;20401;-64
2022/12/13 08:46:28;;;;;;;28.52;16.40;;;1.20;99.90;;;;;;5015082;28;20053;-65
2022/12/13 08:48:55;;;;;;;24.60;15.48;;;1.00;99.90;;;;;;5032300;28;20412;-65
2022/12/13 08:51:22;;;;;;;26.20;15.43;;;1.70;99.90;;;;;;5017560;28;20080;-65
2022/12/13 08:53:49;;;;;;;26.13;16.42;;;1.60;99.90;;;;;;5017096;28;20512;-63
2022/12/13 08:56:17;;;;;;;24.13;16.10;;;1.90;99.90;;;;;;5016281;28;20077;-65
2022/12/13 08:58:48;;;;;;;23.08;15.25;;;2.40;99.90;;;;;;5033793;28;20065;-64
2022/12/13 09:01:17;;;;;;;24.70;16.27;;;2.60;99.90;;;;;;5034660;28;20041;-64
2022/12/13 09:03:44;;;;;;;25.85;16.52;;;2.60;99.90;;;;;;5016674;28;20049;-64
2022/12/13 09:06:14;;;;;;;24.63;15.35;;;2.60;99.90;;;;;;5016824;28;20512;-66
2022/12/13 09:08:41;;;;;;;25.55;16.05;;;2.60;99.90;;;;;;5016578;28;20302;-65
2022/12/13 09:11:09;;;;;;;30.00;16.77;;;2.80;99.90;;;;;;5018696;28;20123;-65
2022/12/13 09:13:37;;;;;;;23.05;15.73;;;3.10;99.90;;;;;;5036409;28;20049;-65
2022/12/13 09:16:05;;;;;;;27.63;15.75;;;3.10;99.90;;;;;;5035167;28;20542;-65
2022/12/13 09:18:34;;;;;;;29.38;17.13;;;3.10;99.90;;;;;;5053118;28;20493;-64
2022/12/13 09:21:05;;;;;;;25.27;15.90;;;3.20;99.90;;;;;;5036540;28;20496;-65
2022/12/13 09:23:32;;;;;;;22.85;15.10;;;3.40;99.90;;;;;;5052187;28;20052;-65
2022/12/13 09:26:00;;;;;;;25.50;15.55;;;3.80;99.90;;;;;;5053938;28;20079;-65
2022/12/13 09:28:28;;;;;;;26.95;17.10;;;4.20;99.90;;;;;;5037599;28;20120;-65
2022/12/13 09:30:55;;;;;;;24.63;15.38;;;4.60;99.90;;;;;;5035563;28;20421;-66
2022/12/13 09:33:22;;;;;;;23.45;15.60;;;4.90;99.90;;;;;;5039144;28;20057;-65
2022/12/13 09:35:51;;;;;;;24.27;16.42;;;4.90;99.90;;;;;;5036125;28;20052;-65
2022/12/13 09:38:18;;;;;;;25.33;16.85;;;4.40;99.90;;;;;;5035083;28;20091;-65
2022/12/13 09:40:49;;;;;;;23.45;16.10;;;4.70;99.90;;;;;;5053879;28;20049;-65
2022/12/13 09:43:24;;;;;;;24.33;15.75;;;5.20;99.90;;;;;;5034931;28;20480;-65
2022/12/13 09:45:52;;;;;;;25.08;15.85;;;5.40;99.90;;;;;;5052123;28;20377;-65
2022/12/13 09:48:22;;;;;;;24.35;16.48;;;5.80;99.90;;;;;;5051360;28;20052;-65
2022/12/13 09:50:51;;;;;;;22.17;15.88;;;5.60;99.90;;;;;;5053550;28;20053;-66
2022/12/13 09:53:20;;;;;;;23.45;16.08;;;6.00;99.90;;;;;;5053046;28;20053;-66
2022/12/13 09:55:49;;;;;;;26.70;17.13;;;5.80;99.90;;;;;;5034141;28;20080;-65
2022/12/13 09:58:20;;;;;;;24.00;17.13;;;5.10;99.90;;;;;;5050030;28;20060;-66
2022/12/13 10:00:49;;;;;;;25.02;16.33;;;4.80;99.90;;;;;;5035690;28;20042;-66
2022/12/13 10:03:19;;;;;;;24.27;16.42;;;4.40;99.90;;;;;;5025451;28;20048;-65
2022/12/13 10:05:51;;;;;;;27.42;17.33;;;4.40;99.90;;;;;;5045388;28;20041;-66
2022/12/13 10:08:23;;;;;;;25.83;16.38;;;4.40;99.90;;;;;;5034328;28;20052;-66
2022/12/13 10:10:51;;;;;;;24.83;15.80;;;4.40;99.90;;;;;;5027996;28;20049;-65
2022/12/13 10:13:22;;;;;;;25.65;16.17;;;4.30;99.90;;;;;;5026753;28;20061;-65
2022/12/13 10:15:54;;;;;;;27.23;17.35;;;4.10;99.90;;;;;;5046148;28;20049;-66
2022/12/13 10:18:37;;;;;;;25.60;15.27;;;3.80;99.90;;;;;;5057873;28;20130;-66
2022/12/13 10:21:10;;;;;;;26.48;16.83;;;3.50;99.90;;;;;;5046790;28;20052;-65
2022/12/13 10:23:38;;;;;;;25.20;15.55;;;3.30;99.90;;;;;;5029265;28;20045;-66
2022/12/13 10:26:09;;;;;;;27.35;16.60;;;3.40;99.90;;;;;;5029014;28;20044;-66
2022/12/13 10:28:37;;;;;;;24.33;16.20;;;3.80;99.90;;;;;;5050972;28;20084;-67
2022/12/13 10:31:04;;;;;;;28.25;16.95;;;4.40;99.90;;;;;;5045511;28;20061;-66
2022/12/13 10:33:33;;;;;;;25.98;17.05;;;5.20;99.90;;;;;;5047939;28;20053;-66
2022/12/13 10:36:15;;;;;;;25.30;16.40;;;5.50;99.90;;;;;;5047290;28;20107;-66
2022/12/13 10:38:45;;;;;;;24.50;15.68;;;6.50;99.90;;;;;;5029224;28;20056;-67
2022/12/13 10:41:34;;;;;;;24.58;15.88;;;7.30;99.90;;;;;;5048631;28;20480;-66
2022/12/13 10:44:25;;;;;;;22.52;15.98;;;8.10;99.90;;;;;;5029524;28;20048;-66
2022/12/13 10:47:14;;;;;;;24.45;16.55;;;8.50;99.10;;;;;;5016602;28;20139;-66
2022/12/13 10:49:49;;;;;;;23.17;15.98;;;8.00;97.90;;;;;;5045436;28;20497;-65
2022/12/13 10:52:26;;;;;;;24.15;16.02;;;9.40;98.70;;;;;;5029997;28;20041;-65
2022/12/13 10:54:56;;;;;;;24.30;15.40;;;9.90;95.90;;;;;;5027228;28;20057;-66
2022/12/13 10:57:25;;;;;;;21.67;14.82;;;10.50;98.30;;;;;;5051348;28;20405;-66
2022/12/13 10:59:52;;;;;;;22.77;15.80;;;10.70;97.10;;;;;;5051264;28;20052;-66
2022/12/13 11:02:33;;;;;;;20.73;16.17;;;11.00;95.80;;;;;;5049538;28;20052;-65
2022/12/13 11:05:21;;;;;;;23.67;17.13;;;11.00;91.60;;;;;;5030509;28;20131;-67
2022/12/13 11:07:48;;;;;;;23.05;16.08;;;11.40;92.50;;;;;;5030079;28;20052;-66
2022/12/13 11:10:22;;;;;;;21.13;15.70;;;11.50;93.90;;;;;;5029896;28;20084;-66
2022/12/13 11:12:50;;;;;;;21.98;15.63;;;12.20;93.70;;;;;;5049839;28;20064;-66
2022/12/13 11:15:20;;;;;;;25.85;17.08;;;12.00;91.90;;;;;;5050636;28;20497;-66
2022/12/13 11:17:50;;;;;;;21.08;16.58;;;12.60;90.20;;;;;;5050679;28;20462;-65
2022/12/13 11:20:21;;;;;;;23.23;16.20;;;12.30;90.90;;;;;;5050804;28;20068;-66
2022/12/13 11:22:49;;;;;;;22.50;15.90;;;11.80;91.20;;;;;;5027050;28;20138;-66
2022/12/13 11:25:24;;;;;;;20.35;15.60;;;11.90;90.50;;;;;;5049620;28;20041;-65
2022/12/13 11:28:03;;;;;;;24.50;16.25;;;12.60;87.40;;;;;;5050545;28;20496;-65
2022/12/13 11:30:37;;;;;;;18.50;14.70;;;13.00;88.20;;;;;;5047913;28;20452;-65
2022/12/13 11:33:16;;;;;;;21.00;13.48;;;13.50;89.30;;;;;;5030774;28;20481;-66
2022/12/13 11:35:54;;;;;;;21.33;13.73;;;13.70;84.70;;;;;;5050898;28;20068;-66
2022/12/13 11:38:30;;;;;;;20.70;13.93;;;13.90;86.40;;;;;;5046199;28;20042;-66
2022/12/13 11:41:02;;;;;;;16.92;13.48;;;12.90;81.20;;;;;;5031046;28;20048;-66
2022/12/13 11:43:36;;;;;;;17.73;13.60;;;13.30;85.20;;;;;;5032589;28;20481;-66
2022/12/13 11:46:26;;;;;;;16.25;13.13;;;13.40;85.70;;;;;;5031768;28;20045;-66
2022/12/13 11:48:57;;;;;;;16.02;12.15;;;13.40;80.70;;;;;;5032049;28;20044;-66
2022/12/13 11:51:29;;;;;;;15.82;11.63;;;13.00;81.80;;;;;;5030837;28;20048;-66
2022/12/13 11:54:01;;;;;;;15.60;11.95;;;12.80;82.20;;;;;;5033444;28;20501;-66
2022/12/13 11:56:35;;;;;;;15.15;10.90;;;13.70;84.00;;;;;;5034082;28;20056;-66
2022/12/13 11:59:10;;;;;;;15.30;11.70;;;14.30;81.50;;;;;;5051060;28;20410;-65
2022/12/13 12:01:43;;;;;;;15.40;11.32;;;13.90;77.20;;;;;;5032915;28;20052;-66
2022/12/13 12:04:19;;;;;;;16.50;11.50;;;14.30;82.60;;;;;;5051147;28;20041;-66
2022/12/13 12:06:50;;;;;;;16.55;11.45;;;14.20;76.10;;;;;;5031247;28;20081;-66
2022/12/13 12:09:20;;;;;;;15.93;11.55;;;13.00;78.50;;;;;;5051142;28;20064;-66
2022/12/13 12:11:58;;;;;;;13.52;11.25;;;13.40;83.00;;;;;;5031944;28;20056;-66
2022/12/13 12:14:36;;;;;;;15.80;11.63;;;13.70;77.90;;;;;;5049469;28;20099;-66
2022/12/13 12:17:05;;;;;;;14.38;10.50;;;13.80;78.80;;;;;;5051498;28;20052;-66
2022/12/13 12:19:36;;;;;;;16.90;10.65;;;13.90;79.90;;;;;;5051047;28;20049;-66
2022/12/13 12:22:15;;;;;;;12.85;9.32;;;14.50;78.20;;;;;;5036512;28;20053;-66
2022/12/13 12:24:52;;;;;;;13.07;10.43;;;13.80;75.50;;;;;;5054513;28;20041;-65
2022/12/13 12:27:28;;;;;;;14.93;10.98;;;13.40;76.60;;;;;;5031502;28;20064;-66
2022/12/13 12:30:08;;;;;;;12.85;10.55;;;13.50;77.20;;;;;;5034305;28;20045;-66
2022/12/13 12:32:44;;;;;;;14.82;9.95;;;13.30;78.90;;;;;;5034081;28;20064;-66
2022/12/13 12:35:55;;;;;;;13.90;11.25;;;13.60;79.00;;;;;;5036640;28;20060;-66
2022/12/13 12:38:28;;;;;;;;;;;13.80;74.90;;;;;;4974702;28;20063;-66
2022/12/13 12:41:13;;;;;;;14.77;10.18;;;13.30;74.00;;;;;;4957106;28;19926;-66
2022/12/13 12:43:43;;;;;;;14.50;9.88;;;14.30;75.20;;;;;;5012561;28;20049;-65
2022/12/13 12:46:26;;;;;;;12.75;10.10;;;13.90;75.50;;;;;;5036860;28;20095;-65
2022/12/13 12:49:24;;;;;;;12.98;10.18;;;14.00;75.70;;;;;;5036704;28;20083;-65
2022/12/13 12:51:59;;;;;;;13.73;10.20;;;14.00;73.90;;;;;;5054891;28;20056;-65
2022/12/13 12:54:43;;;;;;;13.13;9.15;;;14.50;72.70;;;;;;5054725;28;20056;-66